Gillham, Arkansas
Current Conditions -  °F | °C
As of 3:53 AM on Thursday 18 Dec 2014 (Local Time) from KDEQ Reporting Station
Haze Haze  
Wind Chill: 34°   Ceiling: 500
Heat Index: 39°   Visibility: 5mi
Dew Point: 38°   Wind: 7mph
Humidity: 96%   Direction: 90°E
Pressure: 30.17"   Gusts: NA
Location:  34.17°N, 94.32°W
Report Text: KDEQ 180953Z AUTO 09006KT 5SM BR OVC005 04/03 A3017 RMK AO2 SLP215 T00390033
Loading
Personal Weather Stations






























Interactive Weather Map New forecast layout! Learn more

10-Day Weather Forecast

Advertisements
Track Severe Weather on mobile